Terminal Aerodrome Forecast
Issued by NWS

Home | Current Version | Previous Version | Text Only | Print | Product List | Glossary On
Versions: 1 2 3 4 5 6 7 8 9 10 11 12 13 14 15 16 17
000
FTUS44 KTSA 310100 AAA
TAFRVS
TAF AMD
KRVS 310139Z 3102/3124 11004KT P6SM -RA SCT008 SCT014 OVC045
      TEMPO 3102/3104 3SM -RA BR BKN012
     FM310400 00000KT 3SM -RA BR OVC006
     FM311200 00000KT 4SM BR OVC006
     FM311500 11005KT P6SM BKN025
     FM312000 11006KT P6SM BKN050=

USA.gov is the U.S. government's official web portal to all federal, state and local government web resources and services.